Time;durP1;ratioP1;P1;durP2;ratioP2;P2;SDS_P1;SDS_P2;PMS_P1;PMS_P2;Temp;Humidity;BMP_temperature;BMP_pressure;BME280_temperature;BME280_humidity;BME280_pressure;Samples;Min_cycle;Max_cycle;Signal;HPM_P1;HPM_P2
2023/01/23 00:00:40;;;;;;;;;37.00;32.25;;;;;;;;5083400;27;51112;-51
2023/01/23 00:03:24;;;;;;;;;36.00;29.75;;;;;;;;5083181;27;51164;-53
2023/01/23 00:06:13;;;;;;;;;42.75;33.00;;;;;;;;5085854;27;51112;-53
2023/01/23 00:08:57;;;;;;;;;38.25;31.25;;;;;;;;5094508;27;51700;-53
2023/01/23 00:11:41;;;;;;;;;46.50;33.75;;;;;;;;5088978;27;51087;-55
2023/01/23 00:14:26;;;;;;;;;40.50;33.25;;;;;;;;5081150;27;51084;-54
2023/01/23 00:17:10;;;;;;;;;40.50;33.00;;;;;;;;5084611;27;51454;-56
2023/01/23 00:19:55;;;;;;;;;35.00;32.00;;;;;;;;5083750;27;51030;-53
2023/01/23 00:22:39;;;;;;;;;39.00;31.75;;;;;;;;5088874;27;51575;-54
2023/01/23 00:25:23;;;;;;;;;38.00;32.75;;;;;;;;5085376;27;51184;-52
2023/01/23 00:28:08;;;;;;;;;42.25;34.75;;;;;;;;5084366;27;51402;-54
2023/01/23 00:30:52;;;;;;;;;41.75;32.50;;;;;;;;5081238;27;51148;-55
2023/01/23 00:33:36;;;;;;;;;44.25;33.50;;;;;;;;5086348;27;51955;-56
2023/01/23 00:36:22;;;;;;;;;37.25;29.75;;;;;;;;5092455;27;51182;-55
2023/01/23 00:39:08;;;;;;;;;38.75;32.00;;;;;;;;5084359;27;51268;-53
2023/01/23 00:41:53;;;;;;;;;39.25;33.00;;;;;;;;5092934;27;51471;-55
2023/01/23 00:44:37;;;;;;;;;41.50;33.25;;;;;;;;5092458;27;51113;-52
2023/01/23 00:47:21;;;;;;;;;41.25;32.00;;;;;;;;5084305;27;51154;-55
2023/01/23 00:50:06;;;;;;;;;34.00;31.25;;;;;;;;5080372;27;51567;-55
2023/01/23 00:52:50;;;;;;;;;40.50;33.25;;;;;;;;5080397;27;51297;-54
2023/01/23 00:55:35;;;;;;;;;36.00;32.75;;;;;;;;5084533;27;51312;-54
2023/01/23 00:58:19;;;;;;;;;44.50;32.25;;;;;;;;5087075;27;51654;-55
2023/01/23 01:01:03;;;;;;;;;46.25;33.75;;;;;;;;5084623;27;51094;-54
2023/01/23 01:03:48;;;;;;;;;45.75;35.50;;;;;;;;5099174;27;51258;-54
2023/01/23 01:06:33;;;;;;;;;41.00;33.00;;;;;;;;5078045;27;51532;-52
2023/01/23 01:09:17;;;;;;;;;41.75;33.00;;;;;;;;5092452;27;51189;-54
2023/01/23 01:12:02;;;;;;;;;45.75;32.75;;;;;;;;5084238;27;51671;-55
2023/01/23 01:14:46;;;;;;;;;42.25;33.75;;;;;;;;5091601;27;51086;-56
2023/01/23 01:17:31;;;;;;;;;33.75;31.25;;;;;;;;5087170;27;51214;-52
2023/01/23 01:20:15;;;;;;;;;37.00;30.00;;;;;;;;5083865;27;51155;-52
2023/01/23 01:23:00;;;;;;;;;38.25;30.25;;;;;;;;5086432;27;51086;-52
2023/01/23 01:25:44;;;;;;;;;45.00;33.50;;;;;;;;5087511;27;51179;-54
2023/01/23 01:28:29;;;;;;;;;37.50;31.25;;;;;;;;5087424;27;51165;-52
2023/01/23 01:31:14;;;;;;;;;38.25;32.25;;;;;;;;5084287;27;51373;-53
2023/01/23 01:33:58;;;;;;;;;43.00;33.50;;;;;;;;5083717;27;51114;-53
2023/01/23 01:36:43;;;;;;;;;44.75;30.75;;;;;;;;5084860;27;51580;-53
2023/01/23 01:39:27;;;;;;;;;37.50;33.00;;;;;;;;5084031;27;51163;-57
2023/01/23 01:42:12;;;;;;;;;44.75;33.00;;;;;;;;5083423;27;51544;-50
2023/01/23 01:44:58;;;;;;;;;39.75;32.25;;;;;;;;5086761;27;51196;-56
2023/01/23 01:47:42;;;;;;;;;36.00;32.25;;;;;;;;5082998;27;51286;-52
2023/01/23 01:50:27;;;;;;;;;47.00;35.75;;;;;;;;5084015;27;51446;-54
2023/01/23 01:53:11;;;;;;;;;43.50;33.25;;;;;;;;5084791;27;51144;-55
2023/01/23 01:55:56;;;;;;;;;42.25;33.00;;;;;;;;5083459;27;51164;-54
2023/01/23 01:58:42;;;;;;;;;42.25;34.25;;;;;;;;5085739;27;51246;-54
2023/01/23 02:01:27;;;;;;;;;43.00;35.50;;;;;;;;5080219;27;51092;-52
2023/01/23 02:04:12;;;;;;;;;41.50;31.25;;;;;;;;5083797;27;51156;-53
2023/01/23 02:06:56;;;;;;;;;46.50;34.25;;;;;;;;5086159;27;51380;-55
2023/01/23 02:09:40;;;;;;;;;35.50;30.50;;;;;;;;5084181;27;52221;-55
2023/01/23 02:12:25;;;;;;;;;32.75;31.00;;;;;;;;5084353;27;51173;-53
2023/01/23 02:15:10;;;;;;;;;45.75;33.50;;;;;;;;5079821;27;51068;-54
2023/01/23 02:17:54;;;;;;;;;41.00;32.25;;;;;;;;5088328;27;51193;-53
2023/01/23 02:20:38;;;;;;;;;44.25;34.50;;;;;;;;5084111;27;51162;-56
2023/01/23 02:23:32;;;;;;;;;47.75;35.75;;;;;;;;5090227;27;51101;-54
2023/01/23 02:26:19;;;;;;;;;38.25;33.50;;;;;;;;5091667;27;51089;-55
2023/01/23 02:29:03;;;;;;;;;34.50;31.00;;;;;;;;5089488;27;51078;-55
2023/01/23 02:31:51;;;;;;;;;42.50;32.50;;;;;;;;5088336;27;51441;-55
2023/01/23 02:34:36;;;;;;;;;44.25;32.50;;;;;;;;5088648;27;51078;-54
2023/01/23 02:37:20;;;;;;;;;40.25;32.50;;;;;;;;5091283;27;51447;-52
2023/01/23 02:40:05;;;;;;;;;42.50;33.00;;;;;;;;5086734;27;51124;-55
2023/01/23 02:42:51;;;;;;;;;39.00;32.00;;;;;;;;5086087;27;51120;-56
2023/01/23 02:45:35;;;;;;;;;39.25;32.50;;;;;;;;5086560;27;51179;-55
2023/01/23 02:48:20;;;;;;;;;33.25;31.25;;;;;;;;5086130;27;52516;-54
2023/01/23 02:51:06;;;;;;;;;39.50;31.00;;;;;;;;5085061;27;51121;-55
2023/01/23 02:53:50;;;;;;;;;45.00;32.75;;;;;;;;5088210;27;52405;-51
2023/01/23 02:56:35;;;;;;;;;42.00;31.25;;;;;;;;5090353;27;51144;-54
2023/01/23 03:02:22;;;;;;;;;40.25;34.50;;;;;;;;5089549;27;52456;-54
2023/01/23 03:05:07;;;;;;;;;28.25;20.25;;;;;;;;5087334;27;51138;-52
2023/01/23 03:07:52;;;;;;;;;32.50;30.00;;;;;;;;5087766;27;51338;-55
2023/01/23 03:10:36;;;;;;;;;37.25;31.25;;;;;;;;5088633;27;51453;-54
2023/01/23 03:13:21;;;;;;;;;39.50;32.75;;;;;;;;5087790;27;51210;-52
2023/01/23 03:16:06;;;;;;;;;37.25;31.00;;;;;;;;5085157;27;51294;-52
2023/01/23 03:18:50;;;;;;;;;40.00;32.00;;;;;;;;5084526;27;51263;-52
2023/01/23 03:21:36;;;;;;;;;38.75;31.50;;;;;;;;5083130;27;51129;-53
2023/01/23 03:24:21;;;;;;;;;39.50;32.75;;;;;;;;5088775;27;51080;-56
2023/01/23 03:27:06;;;;;;;;;39.25;31.75;;;;;;;;5091600;27;51509;-53
2023/01/23 03:32:53;;;;;;;;;40.00;30.50;;;;;;;;5082850;27;51227;-54
2023/01/23 03:35:38;;;;;;;;;41.00;29.50;;;;;;;;5080803;27;51249;-55
2023/01/23 03:38:22;;;;;;;;;39.75;30.75;;;;;;;;5081977;27;51272;-56
2023/01/23 03:41:25;;;;;;;;;42.75;32.00;;;;;;;;5081758;27;51343;-54
2023/01/23 03:44:09;;;;;;;;;35.25;29.00;;;;;;;;5090907;27;51038;-55
2023/01/23 03:46:54;;;;;;;;;37.00;31.25;;;;;;;;5091537;27;51541;-53
2023/01/23 03:49:38;;;;;;;;;42.00;33.00;;;;;;;;5092636;27;51036;-56
2023/01/23 03:52:23;;;;;;;;;44.50;32.25;;;;;;;;5088017;27;51435;-55
2023/01/23 03:55:07;;;;;;;;;37.00;28.75;;;;;;;;5086644;27;51070;-55
2023/01/23 03:57:52;;;;;;;;;42.00;32.25;;;;;;;;5086594;27;51590;-53
2023/01/23 04:00:36;;;;;;;;;36.50;30.50;;;;;;;;5084446;27;52294;-51
2023/01/23 04:03:20;;;;;;;;;38.25;31.75;;;;;;;;5087332;27;52475;-55
2023/01/23 04:06:05;;;;;;;;;35.00;31.25;;;;;;;;5083986;27;51110;-54
2023/01/23 04:08:49;;;;;;;;;38.25;29.00;;;;;;;;5085821;27;51240;-54
2023/01/23 04:11:33;;;;;;;;;40.75;32.50;;;;;;;;5085989;27;51480;-54
2023/01/23 04:14:18;;;;;;;;;42.75;32.75;;;;;;;;5091353;27;51183;-49
2023/01/23 04:17:03;;;;;;;;;35.25;31.75;;;;;;;;5092204;27;51563;-53
2023/01/23 04:19:47;;;;;;;;;40.50;34.00;;;;;;;;5087447;27;51152;-53
2023/01/23 04:22:32;;;;;;;;;42.50;33.25;;;;;;;;5086170;27;51194;-54
2023/01/23 04:25:16;;;;;;;;;41.00;32.00;;;;;;;;5086881;27;51536;-57
2023/01/23 04:28:01;;;;;;;;;34.25;30.00;;;;;;;;5085595;27;51182;-55
2023/01/23 04:30:45;;;;;;;;;42.00;32.25;;;;;;;;5087938;27;51094;-55
2023/01/23 04:33:29;;;;;;;;;41.50;32.25;;;;;;;;5086329;27;51116;-52
2023/01/23 04:36:14;;;;;;;;;40.50;31.50;;;;;;;;5084156;27;51440;-57
2023/01/23 04:38:58;;;;;;;;;39.25;32.00;;;;;;;;5086382;27;51184;-54
2023/01/23 04:41:43;;;;;;;;;38.25;31.75;;;;;;;;5080626;27;51528;-55
2023/01/23 04:44:27;;;;;;;;;36.75;32.50;;;;;;;;5084700;27;51160;-51
2023/01/23 04:47:12;;;;;;;;;46.25;36.00;;;;;;;;5083444;27;51086;-57
2023/01/23 04:49:56;;;;;;;;;35.00;28.25;;;;;;;;5086739;27;51285;-53
2023/01/23 04:52:40;;;;;;;;;41.25;32.00;;;;;;;;5085362;27;51272;-56
2023/01/23 04:55:27;;;;;;;;;39.75;32.75;;;;;;;;5088540;27;51239;-56
2023/01/23 04:58:11;;;;;;;;;43.25;34.00;;;;;;;;5089250;27;51240;-55
2023/01/23 05:01:05;;;;;;;;;45.25;33.75;;;;;;;;5086178;27;51382;-56
2023/01/23 05:03:51;;;;;;;;;43.25;32.25;;;;;;;;5091614;27;51014;-52
2023/01/23 05:06:35;;;;;;;;;45.25;34.50;;;;;;;;5077161;27;51702;-55
2023/01/23 05:09:19;;;;;;;;;42.00;35.00;;;;;;;;5087515;27;51173;-51
2023/01/23 05:12:05;;;;;;;;;40.25;33.50;;;;;;;;5086710;27;51141;-55
2023/01/23 05:14:49;;;;;;;;;41.75;34.00;;;;;;;;5082932;27;51517;-55
2023/01/23 05:17:33;;;;;;;;;33.25;30.25;;;;;;;;5083052;27;51707;-54
2023/01/23 05:20:19;;;;;;;;;35.25;28.25;;;;;;;;5080851;27;52033;-55
2023/01/23 05:23:03;;;;;;;;;34.50;31.00;;;;;;;;5080092;27;51125;-54
2023/01/23 05:25:47;;;;;;;;;40.75;31.00;;;;;;;;5079515;27;51528;-56
2023/01/23 05:28:32;;;;;;;;;42.00;31.50;;;;;;;;5091360;27;51235;-54
2023/01/23 05:31:16;;;;;;;;;36.75;29.25;;;;;;;;5088298;27;51631;-55
2023/01/23 05:34:01;;;;;;;;;42.75;32.75;;;;;;;;5087972;27;51573;-57
2023/01/23 05:36:45;;;;;;;;;44.75;34.50;;;;;;;;5081180;27;51085;-55
2023/01/23 05:39:33;;;;;;;;;37.00;31.75;;;;;;;;5083473;27;51133;-55
2023/01/23 05:42:17;;;;;;;;;38.75;33.00;;;;;;;;5091742;27;51175;-55
2023/01/23 05:45:01;;;;;;;;;38.75;31.75;;;;;;;;5082368;27;51173;-54
2023/01/23 05:47:46;;;;;;;;;38.50;31.75;;;;;;;;5079686;27;51081;-52
2023/01/23 05:50:30;;;;;;;;;40.00;30.75;;;;;;;;5084986;27;51419;-53
2023/01/23 05:53:15;;;;;;;;;36.50;29.75;;;;;;;;5079382;27;51045;-55
2023/01/23 05:56:06;;;;;;;;;35.50;31.75;;;;;;;;5080758;27;51677;-53
2023/01/23 05:58:50;;;;;;;;;38.00;31.25;;;;;;;;5086706;27;52196;-52
2023/01/23 06:01:34;;;;;;;;;35.50;28.75;;;;;;;;5084120;27;51137;-54
2023/01/23 06:04:18;;;;;;;;;38.25;30.75;;;;;;;;5093277;27;50954;-54
2023/01/23 06:07:03;;;;;;;;;36.25;30.50;;;;;;;;5101853;27;51034;-54
2023/01/23 06:09:47;;;;;;;;;33.50;30.75;;;;;;;;5091344;27;51160;-53
2023/01/23 06:12:32;;;;;;;;;32.25;31.25;;;;;;;;5094412;27;51056;-53
2023/01/23 06:15:16;;;;;;;;;46.00;30.50;;;;;;;;5082891;27;51425;-54
2023/01/23 06:18:00;;;;;;;;;43.50;31.75;;;;;;;;5083378;27;51326;-54
2023/01/23 06:20:45;;;;;;;;;39.25;33.25;;;;;;;;5083327;27;51126;-52
2023/01/23 06:23:30;;;;;;;;;38.00;30.50;;;;;;;;5082891;27;51108;-50
2023/01/23 06:26:14;;;;;;;;;29.00;22.50;;;;;;;;5103334;27;51034;-50
2023/01/23 06:28:59;;;;;;;;;33.25;29.00;;;;;;;;5096881;27;51148;-53
2023/01/23 06:31:44;;;;;;;;;36.00;30.00;;;;;;;;5101050;27;51118;-54
2023/01/23 06:34:30;;;;;;;;;36.00;30.00;;;;;;;;5095438;27;51055;-54
2023/01/23 06:37:14;;;;;;;;;32.00;23.25;;;;;;;;5087033;27;51131;-54
2023/01/23 06:39:58;;;;;;;;;35.75;32.50;;;;;;;;5091241;27;51322;-55
2023/01/23 06:42:42;;;;;;;;;38.00;29.50;;;;;;;;5103267;27;51172;-57
2023/01/23 06:45:27;;;;;;;;;36.25;30.00;;;;;;;;5095177;27;51460;-51
2023/01/23 06:48:12;;;;;;;;;38.00;29.50;;;;;;;;5082217;27;51124;-54
2023/01/23 06:50:59;;;;;;;;;28.50;27.50;;;;;;;;5091034;27;51256;-55
2023/01/23 06:53:43;;;;;;;;;39.00;32.00;;;;;;;;5087644;27;51598;-54
2023/01/23 06:56:27;;;;;;;;;39.75;29.75;;;;;;;;5083498;27;51102;-57
2023/01/23 06:59:12;;;;;;;;;33.25;29.50;;;;;;;;5088300;27;51116;-52
2023/01/23 07:32:52;;;;;;;;;34.50;29.25;;;;;;;;4330290;32;51090;-52
2023/01/23 07:35:38;;;;;;;;;41.50;31.00;;;;;;;;5077563;27;51026;-51
2023/01/23 07:38:22;;;;;;;;;36.25;29.75;;;;;;;;5077093;28;51152;-55
2023/01/23 07:41:06;;;;;;;;;31.00;28.75;;;;;;;;5077341;27;51079;-50
2023/01/23 07:43:51;;;;;;;;;34.75;29.25;;;;;;;;5097087;27;51593;-52
2023/01/23 07:46:35;;;;;;;;;37.00;31.50;;;;;;;;5097530;27;51163;-51
2023/01/23 07:49:20;;;;;;;;;35.25;29.00;;;;;;;;5097859;27;51096;-50
2023/01/23 07:52:04;;;;;;;;;37.50;30.25;;;;;;;;5082529;27;51340;-49
2023/01/23 07:54:48;;;;;;;;;49.25;40.25;;;;;;;;5076761;27;51554;-51
2023/01/23 07:57:33;;;;;;;;;58.25;46.50;;;;;;;;5076687;27;51117;-51
2023/01/23 08:00:18;;;;;;;;;52.50;40.50;;;;;;;;5096408;27;51226;-48
2023/01/23 08:03:02;;;;;;;;;46.25;35.75;;;;;;;;5087276;27;51116;-49
2023/01/23 08:05:49;;;;;;;;;52.75;42.00;;;;;;;;5077750;27;51275;-50
2023/01/23 08:08:34;;;;;;;;;60.00;45.50;;;;;;;;5097397;27;51044;-55
2023/01/23 08:11:18;;;;;;;;;57.25;43.50;;;;;;;;5093306;27;51169;-50
2023/01/23 08:14:03;;;;;;;;;53.25;43.75;;;;;;;;5076668;27;51088;-53
2023/01/23 08:16:51;;;;;;;;;37.25;31.25;;;;;;;;5093738;27;51184;-50
2023/01/23 08:19:35;;;;;;;;;33.50;30.50;;;;;;;;5071635;27;51184;-51
2023/01/23 08:22:20;;;;;;;;;36.50;30.75;;;;;;;;5095149;27;51420;-50
2023/01/23 08:25:04;;;;;;;;;47.50;35.00;;;;;;;;5096906;27;51135;-52
2023/01/23 08:27:49;;;;;;;;;37.25;31.25;;;;;;;;5088279;27;51154;-48
2023/01/23 08:30:33;;;;;;;;;40.25;32.00;;;;;;;;5076055;27;51360;-53
2023/01/23 08:33:18;;;;;;;;;41.25;28.75;;;;;;;;5067252;27;51521;-50
2023/01/23 08:36:03;;;;;;;;;36.75;30.25;;;;;;;;5064699;27;51072;-49
2023/01/23 08:38:47;;;;;;;;;36.50;28.75;;;;;;;;5062909;28;50991;-53
2023/01/23 08:41:32;;;;;;;;;40.25;30.75;;;;;;;;5064164;27;51155;-49
2023/01/23 08:44:16;;;;;;;;;42.50;33.50;;;;;;;;5057098;27;51600;-50
2023/01/23 08:47:02;;;;;;;;;41.75;34.50;;;;;;;;5063891;27;51230;-50
2023/01/23 08:49:46;;;;;;;;;42.00;29.50;;;;;;;;5062496;28;51141;-52
2023/01/23 08:52:30;;;;;;;;;37.50;29.75;;;;;;;;5065676;27;51155;-51
2023/01/23 08:55:15;;;;;;;;;38.75;29.00;;;;;;;;5062106;28;51057;-52
2023/01/23 08:57:59;;;;;;;;;31.50;27.00;;;;;;;;5063595;27;51431;-52
2023/01/23 09:00:43;;;;;;;;;34.75;31.00;;;;;;;;5062039;28;51137;-52
2023/01/23 09:03:28;;;;;;;;;40.75;31.50;;;;;;;;5082778;27;51099;-50
2023/01/23 09:06:13;;;;;;;;;44.25;32.00;;;;;;;;5082266;27;50982;-52
2023/01/23 09:08:57;;;;;;;;;36.75;32.00;;;;;;;;5082330;27;51080;-51
2023/01/23 09:11:42;;;;;;;;;33.50;28.50;;;;;;;;5073308;27;51250;-54
2023/01/23 09:14:26;;;;;;;;;34.25;25.75;;;;;;;;5077088;27;51175;-52
2023/01/23 09:17:11;;;;;;;;;32.50;27.25;;;;;;;;5082168;27;51176;-49
2023/01/23 09:19:56;;;;;;;;;33.00;26.75;;;;;;;;5082064;27;51209;-51
2023/01/23 09:22:40;;;;;;;;;28.25;27.00;;;;;;;;5076842;27;50970;-51
2023/01/23 09:25:25;;;;;;;;;34.25;27.00;;;;;;;;5082004;27;51024;-49
2023/01/23 09:28:09;;;;;;;;;33.25;25.00;;;;;;;;5081810;27;51091;-49
2023/01/23 09:30:54;;;;;;;;;32.75;25.50;;;;;;;;5080790;27;51352;-51
2023/01/23 09:33:39;;;;;;;;;33.75;28.25;;;;;;;;5068059;27;52071;-52
2023/01/23 09:36:24;;;;;;;;;30.75;25.00;;;;;;;;5061476;28;51002;-51
2023/01/23 09:39:08;;;;;;;;;33.00;28.25;;;;;;;;5078092;27;51134;-51
2023/01/23 09:41:53;;;;;;;;;34.25;30.00;;;;;;;;5081306;27;51418;-50
2023/01/23 09:44:39;;;;;;;;;33.00;27.50;;;;;;;;5080390;27;51451;-50
2023/01/23 09:47:30;;;;;;;;;35.25;28.50;;;;;;;;5080690;27;51336;-51
2023/01/23 09:50:26;;;;;;;;;30.50;26.25;;;;;;;;5080963;27;51167;-48
2023/01/23 09:53:15;;;;;;;;;31.75;26.75;;;;;;;;5079334;27;51314;-53
2023/01/23 09:56:03;;;;;;;;;30.75;24.25;;;;;;;;5067916;27;51511;-51
2023/01/23 09:58:58;;;;;;;;;29.25;26.75;;;;;;;;5081243;27;51092;-50
2023/01/23 10:01:42;;;;;;;;;30.00;27.75;;;;;;;;5081135;27;51097;-50
2023/01/23 10:04:28;;;;;;;;;36.75;28.00;;;;;;;;5081280;27;51112;-50
2023/01/23 10:07:21;;;;;;;;;39.25;29.50;;;;;;;;5063740;27;51211;-48
2023/01/23 10:10:17;;;;;;;;;30.00;25.25;;;;;;;;5080957;27;51100;-49
2023/01/23 10:13:13;;;;;;;;;27.75;24.25;;;;;;;;5081009;27;51223;-51
2023/01/23 10:15:58;;;;;;;;;31.00;25.75;;;;;;;;5078892;27;51175;-50
2023/01/23 10:18:48;;;;;;;;;34.50;24.00;;;;;;;;5081425;27;51033;-51
2023/01/23 10:21:37;;;;;;;;;27.25;25.75;;;;;;;;5080123;27;51519;-52
2023/01/23 10:24:41;;;;;;;;;31.50;26.75;;;;;;;;5080916;27;51162;-50
2023/01/23 10:27:32;;;;;;;;;28.25;24.25;;;;;;;;5079903;27;51106;-49
2023/01/23 10:30:19;;;;;;;;;32.50;27.75;;;;;;;;5078883;27;51111;-50
2023/01/23 10:33:10;;;;;;;;;34.25;26.25;;;;;;;;5078034;27;51101;-48
2023/01/23 10:36:02;;;;;;;;;30.00;26.25;;;;;;;;5079919;27;51109;-53
2023/01/23 10:38:56;;;;;;;;;34.50;28.50;;;;;;;;5080666;27;51204;-52
2023/01/23 10:41:41;;;;;;;;;30.75;27.50;;;;;;;;5080345;27;51279;-50
2023/01/23 10:44:25;;;;;;;;;30.00;25.25;;;;;;;;5080759;27;51207;-49
2023/01/23 10:47:23;;;;;;;;;33.50;28.50;;;;;;;;5079160;27;50986;-49
2023/01/23 10:50:07;;;;;;;;;28.50;25.75;;;;;;;;5080758;27;51455;-50
2023/01/23 10:52:51;;;;;;;;;37.25;31.00;;;;;;;;5079891;27;51251;-52
2023/01/23 10:55:44;;;;;;;;;31.00;28.50;;;;;;;;5079442;27;51131;-52
2023/01/23 10:58:33;;;;;;;;;31.50;28.50;;;;;;;;5080326;27;51357;-50
2023/01/23 11:01:24;;;;;;;;;33.00;29.25;;;;;;;;5080284;27;51109;-49
2023/01/23 11:04:17;;;;;;;;;30.00;26.75;;;;;;;;5080557;27;51443;-49
2023/01/23 11:07:16;;;;;;;;;36.00;27.50;;;;;;;;5079250;27;51321;-49
2023/01/23 11:10:12;;;;;;;;;33.25;28.50;;;;;;;;5080192;27;51101;-49
2023/01/23 11:12:57;;;;;;;;;34.50;30.25;;;;;;;;5079792;27;51213;-50
2023/01/23 11:15:41;;;;;;;;;41.50;29.75;;;;;;;;5079664;27;51159;-52
2023/01/23 11:18:33;;;;;;;;;37.75;29.00;;;;;;;;5079832;27;51182;-50
2023/01/23 11:21:26;;;;;;;;;38.00;29.25;;;;;;;;5080525;28;51084;-50
2023/01/23 11:24:17;;;;;;;;;31.00;28.00;;;;;;;;5059999;28;51175;-50
2023/01/23 11:27:01;;;;;;;;;35.75;29.25;;;;;;;;5059882;28;51167;-51
2023/01/23 11:30:02;;;;;;;;;31.00;25.00;;;;;;;;5059832;28;51105;-52
2023/01/23 11:32:55;;;;;;;;;38.00;28.25;;;;;;;;5059402;28;51156;-48
2023/01/23 11:35:59;;;;;;;;;40.75;30.75;;;;;;;;5060073;28;51163;-49
2023/01/23 11:39:03;;;;;;;;;34.50;30.00;;;;;;;;5059482;28;51381;-52
2023/01/23 11:41:47;;;;;;;;;25.00;23.50;;;;;;;;5059854;28;51263;-51
2023/01/23 11:44:32;;;;;;;;;29.00;26.50;;;;;;;;5070999;28;51299;-52
2023/01/23 11:47:33;;;;;;;;;30.75;26.50;;;;;;;;5074261;28;51176;-52
2023/01/23 11:50:27;;;;;;;;;27.00;23.75;;;;;;;;5059361;28;51161;-48
2023/01/23 11:53:30;;;;;;;;;29.25;25.50;;;;;;;;5059784;28;51148;-46
2023/01/23 11:56:14;;;;;;;;;34.00;27.00;;;;;;;;5059339;28;51846;-49
2023/01/23 11:59:02;;;;;;;;;27.50;24.75;;;;;;;;5059325;28;51030;-47
2023/01/23 12:02:01;;;;;;;;;22.25;21.50;;;;;;;;5059793;28;51286;-53
2023/01/23 12:04:46;;;;;;;;;35.00;30.25;;;;;;;;5059299;28;51042;-53
2023/01/23 12:07:35;;;;;;;;;37.00;24.75;;;;;;;;5061546;28;50976;-51
2023/01/23 12:10:25;;;;;;;;;40.00;30.00;;;;;;;;5062671;28;51129;-52
2023/01/23 12:13:09;;;;;;;;;28.25;25.25;;;;;;;;5063301;28;51212;-49
2023/01/23 12:16:13;;;;;;;;;30.75;26.25;;;;;;;;5078212;27;51204;-54
2023/01/23 12:19:26;;;;;;;;;33.00;30.25;;;;;;;;5083607;27;51079;-50
2023/01/23 12:22:16;;;;;;;;;25.25;25.25;;;;;;;;5080287;27;51398;-51
2023/01/23 12:25:07;;;;;;;;;31.00;26.50;;;;;;;;5082753;27;51075;-52
2023/01/23 12:27:58;;;;;;;;;32.75;27.25;;;;;;;;5083372;27;51262;-50
2023/01/23 12:31:01;;;;;;;;;22.50;19.75;;;;;;;;5082710;27;51155;-50
2023/01/23 12:34:20;;;;;;;;;31.25;27.00;;;;;;;;5082177;27;51453;-50
2023/01/23 12:37:21;;;;;;;;;35.50;28.25;;;;;;;;5039945;28;51159;-51
2023/01/23 12:40:09;;;;;;;;;27.00;22.75;;;;;;;;5064595;27;51165;-49
2023/01/23 12:42:59;;;;;;;;;27.50;25.50;;;;;;;;5081934;27;51214;-51
2023/01/23 12:45:52;;;;;;;;;27.25;23.50;;;;;;;;5082718;27;51476;-51
2023/01/23 12:48:44;;;;;;;;;30.00;25.00;;;;;;;;5082526;27;51192;-52
2023/01/23 12:51:32;;;;;;;;;37.50;27.25;;;;;;;;5082353;27;51191;-51
2023/01/23 12:54:30;;;;;;;;;28.50;21.50;;;;;;;;5062373;28;51192;-50
2023/01/23 12:57:38;;;;;;;;;30.75;25.75;;;;;;;;5069903;27;51017;-51
2023/01/23 13:00:38;;;;;;;;;30.00;27.25;;;;;;;;5082344;27;51122;-50
2023/01/23 13:03:34;;;;;;;;;32.50;25.75;;;;;;;;5078274;27;51079;-51
2023/01/23 13:06:17;;;;;;;;;24.50;23.00;;;;;;;;5082378;27;51099;-49
2023/01/23 13:09:17;;;;;;;;;30.75;23.75;;;;;;;;5081900;27;51630;-48
2023/01/23 13:12:22;;;;;;;;;28.00;23.75;;;;;;;;5076194;27;51150;-52
2023/01/23 13:15:15;;;;;;;;;25.25;22.25;;;;;;;;5061648;28;51259;-49
2023/01/23 13:18:01;;;;;;;;;25.50;21.50;;;;;;;;5061345;28;51059;-49
2023/01/23 13:25:08;;;;;;;;;31.50;25.00;;;;;;;;5079758;27;51155;-52
2023/01/23 13:27:46;;;;;;;;;27.00;23.75;;;;;;;;5081790;27;51038;-50
2023/01/23 13:30:31;;;;;;;;;25.25;21.75;;;;;;;;5081162;27;51228;-45
2023/01/23 13:33:15;;;;;;;;;25.25;24.00;;;;;;;;5078876;27;51151;-49
2023/01/23 13:36:13;;;;;;;;;25.75;22.00;;;;;;;;5072189;27;52247;-52
2023/01/23 13:39:18;;;;;;;;;23.75;22.75;;;;;;;;5060967;28;51139;-47
2023/01/23 13:42:14;;;;;;;;;29.25;23.00;;;;;;;;5061034;28;51084;-48
2023/01/23 13:45:18;;;;;;;;;25.00;24.25;;;;;;;;5060944;28;51247;-50
2023/01/23 13:51:18;;;;;;;;;27.00;23.75;;;;;;;;5061007;28;51208;-48
2023/01/23 13:57:15;;;;;;;;;31.00;24.50;;;;;;;;5065251;27;51155;-49
2023/01/23 14:00:00;;;;;;;;;28.75;23.75;;;;;;;;5061038;28;51244;-50
2023/01/23 14:06:06;;;;;;;;;24.50;22.50;;;;;;;;5072266;27;51155;-46
2023/01/23 14:08:51;;;;;;;;;31.75;25.00;;;;;;;;5080501;27;51047;-50
2023/01/23 14:11:37;;;;;;;;;22.75;19.00;;;;;;;;5080645;27;52407;-48
2023/01/23 14:17:24;;;;;;;;;28.25;25.50;;;;;;;;5080691;27;51108;-49
2023/01/23 14:20:15;;;;;;;;;30.25;26.00;;;;;;;;5078951;27;51499;-49
2023/01/23 14:22:59;;;;;;;;;30.75;23.25;;;;;;;;5077376;27;51387;-55
2023/01/23 14:25:44;;;;;;;;;28.50;22.50;;;;;;;;5060459;28;50978;-50
2023/01/23 14:28:28;;;;;;;;;24.00;22.50;;;;;;;;5060277;28;51854;-54
2023/01/23 14:31:20;;;;;;;;;33.25;23.75;;;;;;;;5059348;28;51209;-53
2023/01/23 14:34:06;;;;;;;;;23.50;19.25;;;;;;;;5060552;27;51492;-54
2023/01/23 14:36:53;;;;;;;;;29.50;24.75;;;;;;;;5060030;28;51147;-48
2023/01/23 14:39:37;;;;;;;;;27.00;24.75;;;;;;;;5060146;28;51219;-53
2023/01/23 14:42:27;;;;;;;;;23.50;13.50;;;;;;;;5060000;28;51298;-52
2023/01/23 14:45:12;;;;;;;;;25.25;23.75;;;;;;;;5060466;28;51519;-51
2023/01/23 14:47:57;;;;;;;;;36.00;25.25;;;;;;;;5059911;28;51007;-52
2023/01/23 14:50:49;;;;;;;;;29.00;23.75;;;;;;;;5014854;28;51572;-52
2023/01/23 14:53:33;;;;;;;;;27.75;25.50;;;;;;;;5016112;28;52132;-52
2023/01/23 14:56:18;;;;;;;;;29.50;27.25;;;;;;;;5017549;28;51245;-52
2023/01/23 14:59:04;;;;;;;;;27.00;23.25;;;;;;;;5017923;28;51633;-54
2023/01/23 15:01:55;;;;;;;;;25.50;22.25;;;;;;;;5017373;28;51044;-51
2023/01/23 15:04:40;;;;;;;;;29.75;26.25;;;;;;;;5013052;28;51869;-52
2023/01/23 15:07:24;;;;;;;;;26.75;20.50;;;;;;;;5017356;28;51211;-52
2023/01/23 15:10:12;;;;;;;;;27.25;24.50;;;;;;;;5017443;28;51548;-53
2023/01/23 15:13:03;;;;;;;;;26.00;22.75;;;;;;;;5015665;28;51081;-50
2023/01/23 15:15:57;;;;;;;;;26.50;23.00;;;;;;;;5017370;28;50511;-51
2023/01/23 15:18:50;;;;;;;;;26.75;24.00;;;;;;;;5016932;28;51046;-48
2023/01/23 15:21:36;;;;;;;;;28.75;24.00;;;;;;;;5017010;28;51137;-51
2023/01/23 15:24:25;;;;;;;;;32.25;26.00;;;;;;;;5015539;28;51033;-53
2023/01/23 15:27:22;;;;;;;;;35.75;29.75;;;;;;;;5028858;28;51127;-55
2023/01/23 15:30:25;;;;;;;;;32.75;25.75;;;;;;;;5059152;28;51415;-50
2023/01/23 15:33:30;;;;;;;;;28.75;26.00;;;;;;;;5059785;28;51069;-53
2023/01/23 15:39:00;;;;;;;;;26.25;22.75;;;;;;;;5014890;28;51083;-50
2023/01/23 15:41:52;;;;;;;;;28.75;22.75;;;;;;;;5017265;28;51522;-51
2023/01/23 15:44:37;;;;;;;;;28.75;23.75;;;;;;;;5004242;28;51561;-53
2023/01/23 15:47:21;;;;;;;;;26.75;21.50;;;;;;;;5021214;28;51260;-52
2023/01/23 15:50:05;;;;;;;;;29.00;23.75;;;;;;;;5018591;28;51176;-51
2023/01/23 15:52:51;;;;;;;;;27.50;24.25;;;;;;;;5021156;28;51065;-51
2023/01/23 15:55:35;;;;;;;;;27.25;25.25;;;;;;;;5019358;28;51470;-54
2023/01/23 15:58:20;;;;;;;;;23.75;20.00;;;;;;;;5020989;28;51086;-53
2023/01/23 16:01:04;;;;;;;;;30.50;27.50;;;;;;;;5006837;28;51409;-51
2023/01/23 16:03:49;;;;;;;;;30.00;23.25;;;;;;;;5019594;28;51135;-52
2023/01/23 16:06:33;;;;;;;;;28.25;24.00;;;;;;;;5019802;28;51457;-54
2023/01/23 16:09:23;;;;;;;;;27.75;21.50;;;;;;;;5018401;28;51439;-50
2023/01/23 16:12:10;;;;;;;;;27.00;24.00;;;;;;;;5018837;28;51617;-50
2023/01/23 16:14:55;;;;;;;;;26.00;25.00;;;;;;;;5014483;28;51128;-54
2023/01/23 16:17:40;;;;;;;;;28.00;25.75;;;;;;;;5074825;27;51141;-53
2023/01/23 16:20:29;;;;;;;;;29.75;26.50;;;;;;;;5065216;27;51130;-50
2023/01/23 16:23:18;;;;;;;;;29.50;25.25;;;;;;;;5083283;27;51182;-50
2023/01/23 16:28:48;;;;;;;;;34.00;25.50;;;;;;;;5007342;28;51255;-50
2023/01/23 16:34:45;;;;;;;;;31.25;29.00;;;;;;;;5019879;28;51190;-52
2023/01/23 16:37:54;;;;;;;;;35.75;29.25;;;;;;;;4997014;28;51138;-52
2023/01/23 16:40:38;;;;;;;;;30.25;24.00;;;;;;;;4995643;28;51147;-51
2023/01/23 16:43:23;;;;;;;;;36.50;28.50;;;;;;;;4999933;28;51213;-56
2023/01/23 16:46:07;;;;;;;;;26.00;21.75;;;;;;;;4999885;28;51112;-52
2023/01/23 16:48:53;;;;;;;;;31.25;24.00;;;;;;;;5000172;28;51461;-55
